createdAt,value
2022-08-30T00:00:41.198Z,99.99
2022-08-30T00:01:41.223Z,99.99
2022-08-30T00:02:41.535Z,99.99
2022-08-30T00:03:41.367Z,99.99
2022-08-30T00:04:41.165Z,99.99
2022-08-30T00:05:41.371Z,99.99
2022-08-30T00:06:41.150Z,99.99
2022-08-30T00:07:41.142Z,99.99
2022-08-30T00:08:41.149Z,99.99
2022-08-30T00:09:41.137Z,99.99
2022-08-30T00:10:41.118Z,99.99
2022-08-30T00:11:41.116Z,99.99
2022-08-30T00:12:41.106Z,99.99
2022-08-30T00:13:41.144Z,99.99
2022-08-30T00:14:41.147Z,99.99
2022-08-30T00:15:41.206Z,99.99
2022-08-30T00:16:41.116Z,99.99
2022-08-30T00:17:41.107Z,99.99
2022-08-30T00:18:41.080Z,99.99
2022-08-30T00:19:41.107Z,99.99
2022-08-30T00:20:41.077Z,99.99
2022-08-30T00:21:41.059Z,99.99
2022-08-30T00:22:41.073Z,99.99
2022-08-30T00:23:41.056Z,99.99
2022-08-30T00:24:41.073Z,99.99
2022-08-30T00:25:41.033Z,99.99
2022-08-30T00:26:41.044Z,99.99
2022-08-30T00:27:41.014Z,99.99
2022-08-30T00:28:41.003Z,99.99
2022-08-30T00:29:40.994Z,99.99
2022-08-30T00:30:41.119Z,99.99
2022-08-30T00:31:40.978Z,99.99
2022-08-30T00:32:40.980Z,99.99
2022-08-30T00:33:40.967Z,99.99
2022-08-30T00:34:41.183Z,99.99
2022-08-30T00:35:40.965Z,99.99
2022-08-30T00:36:40.944Z,99.99
2022-08-30T00:37:40.949Z,99.99
2022-08-30T00:38:40.940Z,99.99
2022-08-30T00:39:40.923Z,99.99
2022-08-30T00:40:40.958Z,99.99
2022-08-30T00:41:40.900Z,99.99
2022-08-30T00:42:40.918Z,99.99
2022-08-30T00:43:41.001Z,99.99
2022-08-30T00:44:40.938Z,99.99
2022-08-30T00:45:40.877Z,99.99
2022-08-30T00:46:40.966Z,99.99
2022-08-30T00:47:40.924Z,99.99
2022-08-30T00:48:41.181Z,99.99
2022-08-30T00:49:40.857Z,99.99
2022-08-30T00:50:40.893Z,99.99
2022-08-30T00:51:40.860Z,99.99
2022-08-30T00:52:40.861Z,99.99
2022-08-30T00:53:40.861Z,99.99
2022-08-30T00:54:40.834Z,99.99
2022-08-30T00:55:41.966Z,99.99
2022-08-30T00:56:40.827Z,99.99
2022-08-30T00:57:40.828Z,99.99
2022-08-30T00:58:40.825Z,99.99
2022-08-30T00:59:40.784Z,99.99
2022-08-30T01:00:40.789Z,99.99
2022-08-30T01:01:40.784Z,99.99
2022-08-30T01:02:40.812Z,99.99
2022-08-30T01:03:40.762Z,99.99
2022-08-30T01:04:40.761Z,99.99
2022-08-30T01:05:40.747Z,99.99
2022-08-30T01:06:40.774Z,99.99
2022-08-30T01:07:40.715Z,99.99
2022-08-30T01:08:40.716Z,99.99
2022-08-30T01:09:40.742Z,99.99
2022-08-30T01:10:40.748Z,99.99
2022-08-30T01:11:40.704Z,99.99
2022-08-30T01:12:40.701Z,99.99
2022-08-30T01:13:40.713Z,99.99
2022-08-30T01:14:40.724Z,99.99
2022-08-30T01:15:40.744Z,99.99
2022-08-30T01:16:40.692Z,99.99
2022-08-30T01:17:40.664Z,99.99
2022-08-30T01:18:40.667Z,99.99
2022-08-30T01:19:40.640Z,99.99
2022-08-30T01:20:40.665Z,99.99
2022-08-30T01:21:40.651Z,99.99
2022-08-30T01:22:40.619Z,99.99
2022-08-30T01:23:40.628Z,99.99
2022-08-30T01:24:40.646Z,99.99
2022-08-30T01:25:40.610Z,99.99
2022-08-30T01:26:40.601Z,99.99
2022-08-30T01:27:40.604Z,99.99
2022-08-30T01:28:40.617Z,99.99
2022-08-30T01:29:40.594Z,99.99
2022-08-30T01:30:40.644Z,99.99
2022-08-30T01:31:40.605Z,99.99
2022-08-30T01:32:40.564Z,99.99
2022-08-30T01:33:40.545Z,99.99
2022-08-30T01:34:40.546Z,99.99
2022-08-30T01:35:40.562Z,99.99
2022-08-30T01:36:44.686Z,99.99
2022-08-30T01:37:40.513Z,99.99
2022-08-30T01:38:40.553Z,99.99
2022-08-30T01:39:40.492Z,99.99
2022-08-30T01:40:40.542Z,99.99
2022-08-30T01:41:40.488Z,99.99
2022-08-30T01:42:40.487Z,99.99
2022-08-30T01:43:40.467Z,99.99
2022-08-30T01:44:40.461Z,99.99
2022-08-30T01:45:40.575Z,99.99
2022-08-30T01:46:40.503Z,99.99
2022-08-30T01:47:40.456Z,99.99
2022-08-30T01:48:40.439Z,99.99
2022-08-30T01:49:40.425Z,99.99
2022-08-30T01:50:41.413Z,99.99
2022-08-30T01:51:40.408Z,99.99
2022-08-30T01:52:40.419Z,99.99
2022-08-30T01:53:40.401Z,99.99
2022-08-30T01:54:40.418Z,99.99
2022-08-30T01:55:40.479Z,99.99
2022-08-30T01:56:40.626Z,99.99
2022-08-30T01:57:40.484Z,99.99
2022-08-30T01:58:40.417Z,99.99
2022-08-30T01:59:40.414Z,99.99
2022-08-30T02:00:40.364Z,99.99
2022-08-30T02:01:40.391Z,99.99
2022-08-30T02:02:40.322Z,99.99
2022-08-30T02:03:40.366Z,99.99
2022-08-30T02:04:40.339Z,99.99
2022-08-30T02:05:40.337Z,99.99
2022-08-30T02:06:40.284Z,99.99
2022-08-30T02:07:40.276Z,99.99
2022-08-30T02:08:40.302Z,99.99
2022-08-30T02:09:40.385Z,99.99
2022-08-30T02:10:40.283Z,99.99
2022-08-30T02:11:40.330Z,99.99
2022-08-30T02:12:40.292Z,99.99
2022-08-30T02:13:40.294Z,99.99
2022-08-30T02:14:41.335Z,99.99
2022-08-30T02:15:41.527Z,99.99
2022-08-30T02:16:40.290Z,99.99
2022-08-30T02:17:40.222Z,99.99
2022-08-30T02:18:40.294Z,99.99
2022-08-30T02:19:40.230Z,99.99
2022-08-30T02:20:40.207Z,99.99
2022-08-30T02:21:40.185Z,99.99
2022-08-30T02:22:40.191Z,99.99
2022-08-30T02:23:40.212Z,99.99
2022-08-30T02:24:40.190Z,99.99
2022-08-30T02:25:40.146Z,99.99
2022-08-30T02:26:40.161Z,99.99
2022-08-30T02:27:40.147Z,99.99
2022-08-30T02:28:42.895Z,99.99
2022-08-30T02:29:40.116Z,99.99
2022-08-30T02:30:40.298Z,99.99
2022-08-30T02:31:40.111Z,99.99
2022-08-30T02:32:40.108Z,99.99
2022-08-30T02:33:40.430Z,99.99
2022-08-30T02:34:40.094Z,99.99
2022-08-30T02:35:40.114Z,99.99
2022-08-30T02:36:40.076Z,99.99
2022-08-30T02:37:40.330Z,99.99
2022-08-30T02:38:40.057Z,99.99
2022-08-30T02:39:40.041Z,99.99
2022-08-30T02:40:40.171Z,99.99
2022-08-30T02:41:40.049Z,99.99
2022-08-30T02:42:40.041Z,99.99
2022-08-30T02:43:40.126Z,99.99
2022-08-30T02:44:40.034Z,99.99
2022-08-30T02:45:40.195Z,99.99
2022-08-30T02:46:40.029Z,99.99
2022-08-30T02:47:43.613Z,99.99
2022-08-30T02:48:40.028Z,99.99
2022-08-30T02:49:39.993Z,99.99
2022-08-30T02:50:40.030Z,99.99
2022-08-30T02:51:40.011Z,99.99
2022-08-30T02:52:39.977Z,99.99
2022-08-30T02:54:25.924Z,99.99
2022-08-30T02:55:26.170Z,99.99
2022-08-30T02:56:25.969Z,99.99
2022-08-30T02:57:26.228Z,99.99
2022-08-30T02:58:25.915Z,99.99
2022-08-30T02:59:25.911Z,99.99
2022-08-30T03:00:25.916Z,99.99
2022-08-30T03:01:29.255Z,99.99
2022-08-30T03:02:25.965Z,99.99
2022-08-30T03:03:25.957Z,99.99
2022-08-30T03:04:26.764Z,99.99
2022-08-30T03:05:25.940Z,99.99
2022-08-30T03:06:25.899Z,99.99
2022-08-30T03:07:25.927Z,99.99
2022-08-30T03:08:25.881Z,99.99
2022-08-30T03:09:25.839Z,99.99
2022-08-30T03:10:25.856Z,99.99
2022-08-30T03:11:26.015Z,99.99
2022-08-30T03:12:25.801Z,99.99
2022-08-30T03:13:25.800Z,99.99
2022-08-30T03:14:25.787Z,99.99
2022-08-30T03:15:25.781Z,99.99
2022-08-30T03:16:25.885Z,99.99
2022-08-30T03:17:25.762Z,99.99
2022-08-30T03:18:25.765Z,99.99
2022-08-30T03:19:25.761Z,99.99
2022-08-30T03:20:25.744Z,99.99
2022-08-30T03:21:25.830Z,99.99
2022-08-30T03:22:25.832Z,99.99
2022-08-30T03:23:25.772Z,99.99
2022-08-30T03:24:25.710Z,99.99
2022-08-30T03:25:25.876Z,99.99
2022-08-30T03:26:25.702Z,99.99
2022-08-30T03:27:25.738Z,99.99
2022-08-30T03:28:25.664Z,99.99
2022-08-30T03:29:26.306Z,99.99
2022-08-30T03:30:26.031Z,99.99
2022-08-30T03:31:25.733Z,99.99
2022-08-30T03:32:25.704Z,99.99
2022-08-30T03:33:25.632Z,99.99
2022-08-30T03:34:25.652Z,99.99
2022-08-30T03:35:25.979Z,99.99
2022-08-30T03:36:25.675Z,99.99
2022-08-30T03:37:27.428Z,99.99
2022-08-30T03:38:25.625Z,99.99
2022-08-30T03:39:26.019Z,99.99
2022-08-30T03:40:25.704Z,99.99
2022-08-30T03:41:25.636Z,99.99
2022-08-30T03:42:25.574Z,99.99
2022-08-30T03:43:25.634Z,99.99
2022-08-30T03:44:25.577Z,99.99
2022-08-30T03:45:25.747Z,99.99
2022-08-30T03:46:26.933Z,99.99
2022-08-30T03:47:25.554Z,99.99
2022-08-30T03:48:25.535Z,99.99
2022-08-30T03:49:25.828Z,99.99
2022-08-30T03:50:25.562Z,99.99
2022-08-30T03:51:25.497Z,99.99
2022-08-30T03:52:25.523Z,99.99
2022-08-30T03:53:27.242Z,99.99
2022-08-30T03:54:25.496Z,99.99
2022-08-30T03:55:25.620Z,99.99
2022-08-30T03:56:25.499Z,99.99
2022-08-30T03:57:25.502Z,99.99
2022-08-30T03:58:25.489Z,99.99
2022-08-30T03:59:25.471Z,99.99
2022-08-30T04:00:25.537Z,99.99
2022-08-30T04:01:25.670Z,99.99
2022-08-30T04:02:25.771Z,99.99
2022-08-30T04:03:25.610Z,99.99
2022-08-30T04:04:25.406Z,99.99
2022-08-30T04:05:25.560Z,99.99
2022-08-30T04:06:25.405Z,99.99
2022-08-30T04:07:25.362Z,99.99
2022-08-30T04:08:25.360Z,99.99
2022-08-30T04:09:25.594Z,99.99
2022-08-30T04:10:25.606Z,99.99
2022-08-30T04:11:25.650Z,99.99
2022-08-30T04:12:25.446Z,99.99
2022-08-30T04:13:25.313Z,99.99
2022-08-30T04:14:25.311Z,99.99
2022-08-30T04:15:25.665Z,99.99
2022-08-30T04:16:25.385Z,99.99
2022-08-30T04:17:25.300Z,99.99
2022-08-30T04:18:25.278Z,99.99
2022-08-30T04:19:25.506Z,99.99
2022-08-30T04:20:25.482Z,99.99
2022-08-30T04:21:25.518Z,99.99
2022-08-30T04:22:25.484Z,99.99
2022-08-30T04:23:25.378Z,99.99
2022-08-30T04:24:25.318Z,99.99
2022-08-30T04:25:25.383Z,99.99
2022-08-30T04:26:29.315Z,99.99
2022-08-30T04:27:25.232Z,99.99
2022-08-30T04:28:25.326Z,99.99
2022-08-30T04:29:25.225Z,99.99
2022-08-30T04:30:25.479Z,99.99
2022-08-30T04:31:25.571Z,99.99
2022-08-30T04:32:25.264Z,99.99
2022-08-30T04:33:25.217Z,99.99
2022-08-30T04:34:25.265Z,99.99
2022-08-30T04:35:25.339Z,99.99
2022-08-30T04:36:25.159Z,99.99
2022-08-30T04:37:25.196Z,99.99
2022-08-30T04:38:29.899Z,99.99
2022-08-30T04:39:25.143Z,99.99
2022-08-30T04:40:25.321Z,99.99
2022-08-30T04:41:25.196Z,99.99
2022-08-30T04:42:25.238Z,99.99
2022-08-30T04:43:25.087Z,99.99
2022-08-30T04:44:25.125Z,99.99
2022-08-30T04:45:25.191Z,99.99
2022-08-30T04:46:25.102Z,99.99
2022-08-30T04:47:25.090Z,99.99
2022-08-30T04:48:25.062Z,99.99
2022-08-30T04:49:25.049Z,99.99
2022-08-30T04:50:25.204Z,99.99
2022-08-30T04:51:25.078Z,99.99
2022-08-30T04:52:25.060Z,99.99
2022-08-30T04:53:25.059Z,99.99
2022-08-30T04:54:25.027Z,99.99
2022-08-30T04:55:25.561Z,99.99
2022-08-30T04:56:24.988Z,99.99
2022-08-30T04:57:25.003Z,99.99
2022-08-30T04:58:24.963Z,99.99
2022-08-30T04:59:25.031Z,99.99
2022-08-30T05:00:25.128Z,99.99
2022-08-30T05:01:25.069Z,99.99
2022-08-30T05:02:24.988Z,99.99
2022-08-30T05:03:25.113Z,99.99
2022-08-30T05:04:24.936Z,99.99
2022-08-30T05:05:25.045Z,99.99
2022-08-30T05:06:24.910Z,99.99
2022-08-30T05:07:25.097Z,99.99
2022-08-30T05:08:25.074Z,99.99
2022-08-30T05:09:24.976Z,99.99
2022-08-30T05:10:25.151Z,99.99
2022-08-30T05:11:24.918Z,99.99
2022-08-30T05:12:25.150Z,99.99
2022-08-30T05:13:35.355Z,99.99
2022-08-30T05:14:24.877Z,99.99
2022-08-30T05:15:25.088Z,99.99
2022-08-30T05:16:24.898Z,99.99
2022-08-30T05:17:24.850Z,99.99
2022-08-30T05:18:24.839Z,99.99
2022-08-30T05:19:24.818Z,99.99
2022-08-30T05:20:25.153Z,99.99
2022-08-30T05:21:24.825Z,99.99
2022-08-30T05:22:24.941Z,99.99
2022-08-30T05:23:24.810Z,99.99
2022-08-30T05:24:24.784Z,99.99
2022-08-30T05:25:24.853Z,99.99
2022-08-30T05:26:25.176Z,99.99
2022-08-30T05:27:24.782Z,99.99
2022-08-30T05:28:26.303Z,99.99
2022-08-30T05:29:24.749Z,99.99
2022-08-30T05:30:24.811Z,99.99
2022-08-30T05:31:24.887Z,99.99
2022-08-30T05:32:24.737Z,99.99
2022-08-30T05:33:24.752Z,99.99
2022-08-30T05:34:24.718Z,99.99
2022-08-30T05:35:25.909Z,99.99
2022-08-30T05:36:24.744Z,99.99
2022-08-30T05:37:24.719Z,99.99
2022-08-30T05:38:24.691Z,99.99
2022-08-30T05:39:24.706Z,99.99
2022-08-30T05:40:24.931Z,99.99
2022-08-30T05:41:26.493Z,99.99
2022-08-30T05:42:24.681Z,99.99
2022-08-30T05:43:26.835Z,99.99
2022-08-30T05:44:25.913Z,99.99
2022-08-30T05:45:24.816Z,99.99
2022-08-30T05:46:24.903Z,99.99
2022-08-30T05:47:24.633Z,99.99
2022-08-30T05:48:24.667Z,99.99
2022-08-30T05:49:24.664Z,99.99
2022-08-30T05:50:24.775Z,99.99
2022-08-30T05:51:24.601Z,99.99
2022-08-30T05:52:24.607Z,99.99
2022-08-30T05:53:24.614Z,99.99
2022-08-30T05:54:24.605Z,99.99
2022-08-30T05:55:24.932Z,99.99
2022-08-30T05:56:24.733Z,99.99
2022-08-30T05:57:24.556Z,99.99
2022-08-30T05:58:24.555Z,99.99
2022-08-30T05:59:24.536Z,99.99
2022-08-30T06:00:24.700Z,99.99
2022-08-30T06:01:24.652Z,99.99
2022-08-30T06:02:24.563Z,99.99
2022-08-30T06:03:24.571Z,99.99
2022-08-30T06:04:24.736Z,99.99
2022-08-30T06:05:24.665Z,99.99
2022-08-30T06:06:24.518Z,99.99
2022-08-30T06:07:24.480Z,99.99
2022-08-30T06:08:24.523Z,99.99
2022-08-30T06:09:24.540Z,99.99
2022-08-30T06:10:24.621Z,99.99
2022-08-30T06:11:24.520Z,99.99
2022-08-30T06:12:24.504Z,99.99
2022-08-30T06:13:24.552Z,99.99
2022-08-30T06:14:24.472Z,99.99
2022-08-30T06:15:24.627Z,99.99
2022-08-30T06:16:24.488Z,99.99
2022-08-30T06:17:24.469Z,99.99
2022-08-30T06:18:28.375Z,99.99
2022-08-30T06:19:24.698Z,99.99
2022-08-30T06:20:24.551Z,99.99
2022-08-30T06:21:24.427Z,99.99
2022-08-30T06:22:24.416Z,99.99
2022-08-30T06:23:24.443Z,99.99
2022-08-30T06:24:35.854Z,99.99
2022-08-30T06:25:24.771Z,99.99
2022-08-30T06:26:24.454Z,99.99
2022-08-30T06:27:24.375Z,99.99
2022-08-30T06:28:24.393Z,99.99
2022-08-30T06:29:24.362Z,99.99
2022-08-30T06:30:24.504Z,99.99
2022-08-30T06:31:24.456Z,99.99
2022-08-30T06:32:24.347Z,99.99
2022-08-30T06:33:24.379Z,99.99
2022-08-30T06:34:24.359Z,99.99
2022-08-30T06:35:24.471Z,99.99
2022-08-30T06:36:24.342Z,99.99
2022-08-30T06:37:29.102Z,99.99
2022-08-30T06:38:24.339Z,99.99
2022-08-30T06:39:24.350Z,99.99
2022-08-30T06:40:24.506Z,99.99
2022-08-30T06:41:24.339Z,99.99
2022-08-30T06:42:24.305Z,99.99
2022-08-30T06:43:24.324Z,99.99
2022-08-30T06:44:24.341Z,99.99
2022-08-30T06:45:24.425Z,99.99
2022-08-30T06:46:24.356Z,99.99
2022-08-30T06:47:24.301Z,99.99
2022-08-30T06:48:24.249Z,99.99
2022-08-30T06:49:24.252Z,99.99
2022-08-30T06:50:24.492Z,99.99
2022-08-30T06:51:24.290Z,99.99
2022-08-30T06:52:24.268Z,99.99
2022-08-30T06:53:24.263Z,99.99
2022-08-30T06:54:24.232Z,99.99
2022-08-30T06:55:24.382Z,99.99
2022-08-30T06:56:25.181Z,99.99
2022-08-30T06:57:24.225Z,99.99
2022-08-30T06:58:24.215Z,99.99
2022-08-30T06:59:24.195Z,99.99
2022-08-30T07:00:24.430Z,99.99
2022-08-30T07:01:24.272Z,99.99
2022-08-30T07:02:24.259Z,99.99
2022-08-30T07:03:24.215Z,99.99
2022-08-30T07:04:24.240Z,98.96
2022-08-30T07:05:24.362Z,97.91
2022-08-30T07:06:24.202Z,99.99
2022-08-30T07:07:24.207Z,98.86
2022-08-30T07:08:24.192Z,98.96
2022-08-30T07:09:24.213Z,99.99
2022-08-30T07:10:24.353Z,99.10
2022-08-30T07:11:26.742Z,98.72
2022-08-30T07:12:24.168Z,99.01
2022-08-30T07:13:24.161Z,98.72
2022-08-30T07:14:24.159Z,98.14
2022-08-30T07:15:24.298Z,99.44
2022-08-30T07:16:24.166Z,98.58
2022-08-30T07:17:24.129Z,97.14
2022-08-30T07:18:24.103Z,95.79
2022-08-30T07:19:24.142Z,97.04
2022-08-30T07:20:24.231Z,97.62
2022-08-30T07:21:24.119Z,98.19
2022-08-30T07:22:24.092Z,96.37
2022-08-30T07:23:24.090Z,96.85
2022-08-30T07:24:24.096Z,96.80
2022-08-30T07:25:24.237Z,93.82
2022-08-30T07:26:24.090Z,93.63
2022-08-30T07:27:24.109Z,94.73
2022-08-30T07:28:24.087Z,96.47
2022-08-30T07:29:24.081Z,95.98
2022-08-30T07:30:24.178Z,96.75
2022-08-30T07:31:24.080Z,96.66
2022-08-30T07:32:24.053Z,94.93
2022-08-30T07:33:24.066Z,95.03
2022-08-30T07:34:26.972Z,95.79
2022-08-30T07:35:24.197Z,96.32
2022-08-30T07:36:24.033Z,96.03
2022-08-30T07:37:24.043Z,96.17
2022-08-30T07:38:24.022Z,95.98
2022-08-30T07:39:24.015Z,96.27
2022-08-30T07:40:24.348Z,93.68
2022-08-30T07:41:24.065Z,95.12
2022-08-30T07:42:24.001Z,95.02
2022-08-30T07:43:24.153Z,96.80
2022-08-30T07:44:25.029Z,98.96
2022-08-30T07:45:24.169Z,96.75
2022-08-30T07:46:24.107Z,97.28
2022-08-30T07:47:23.993Z,94.40
2022-08-30T07:48:23.972Z,93.87
2022-08-30T07:49:23.997Z,96.17
2022-08-30T07:50:24.061Z,96.51
2022-08-30T07:51:23.990Z,94.92
2022-08-30T07:52:24.019Z,90.88
2022-08-30T07:53:24.015Z,91.84
2022-08-30T07:54:24.007Z,91.69
2022-08-30T07:55:24.147Z,90.20
2022-08-30T07:56:24.051Z,90.48
2022-08-30T07:57:24.019Z,91.31
2022-08-30T07:58:24.125Z,92.22
2022-08-30T07:59:24.002Z,89.23
2022-08-30T08:00:24.118Z,88.27
2022-08-30T08:01:24.026Z,88.42
2022-08-30T08:02:24.034Z,89.86
2022-08-30T08:03:23.971Z,88.81
2022-08-30T08:04:23.949Z,89.48
2022-08-30T08:05:24.929Z,88.85
2022-08-30T08:06:23.961Z,90.97
2022-08-30T08:07:23.946Z,90.88
2022-08-30T08:08:23.946Z,91.50
2022-08-30T08:09:24.072Z,91.21
2022-08-30T08:10:24.125Z,88.51
2022-08-30T08:11:23.963Z,89.67
2022-08-30T08:12:24.193Z,88.65
2022-08-30T08:13:23.995Z,88.22
2022-08-30T08:14:23.972Z,88.93
2022-08-30T08:15:24.097Z,87.34
2022-08-30T08:16:24.132Z,85.26
2022-08-30T08:17:23.953Z,83.23
2022-08-30T08:18:23.953Z,81.93
2022-08-30T08:19:24.005Z,82.32
2022-08-30T08:20:24.109Z,80.91
2022-08-30T08:21:23.991Z,82.50
2022-08-30T08:22:23.988Z,80.57
2022-08-30T08:23:24.179Z,80.18
2022-08-30T08:24:24.360Z,82.50
2022-08-30T08:25:24.146Z,80.86
2022-08-30T08:26:24.013Z,79.31
2022-08-30T08:27:24.005Z,78.83
2022-08-30T08:28:24.374Z,81.24
2022-08-30T08:29:26.620Z,80.94
2022-08-30T08:31:06.596Z,79.29
2022-08-30T08:32:06.474Z,78.17
2022-08-30T08:33:06.505Z,75.75
2022-08-30T08:34:06.665Z,76.97
2022-08-30T08:35:06.586Z,77.61
2022-08-30T08:36:09.355Z,78.67
2022-08-30T08:37:06.466Z,82.35
2022-08-30T08:38:06.502Z,79.58
2022-08-30T08:39:06.478Z,78.23
2022-08-30T08:40:06.687Z,77.75
2022-08-30T08:41:06.473Z,78.23
2022-08-30T08:42:10.294Z,77.88
2022-08-30T08:43:06.463Z,74.57
2022-08-30T08:44:06.484Z,76.41
2022-08-30T08:45:11.018Z,72.34
2022-08-30T08:46:06.507Z,73.79
2022-08-30T08:47:06.477Z,72.89
2022-08-30T08:48:06.521Z,73.02
2022-08-30T08:49:06.472Z,72.53
2022-08-30T08:50:06.648Z,73.25
2022-08-30T08:51:06.482Z,73.93
2022-08-30T08:52:06.537Z,72.57
2022-08-30T08:53:06.473Z,73.60
2022-08-30T08:54:06.513Z,74.80
2022-08-30T08:55:06.659Z,72.38
2022-08-30T08:56:06.512Z,73.93
2022-08-30T08:57:06.482Z,73.83
2022-08-30T08:58:06.533Z,72.57
2022-08-30T08:59:06.716Z,72.92
2022-08-30T09:00:06.664Z,73.79
2022-08-30T09:01:06.526Z,73.99
2022-08-30T09:02:06.472Z,75.21
2022-08-30T09:03:06.462Z,75.92
2022-08-30T09:04:06.530Z,75.21
2022-08-30T09:06:06.470Z,77.24
2022-08-30T09:07:06.456Z,75.21
2022-08-30T09:08:09.717Z,75.79
2022-08-30T09:09:06.660Z,75.89
2022-08-30T09:10:06.833Z,76.24
2022-08-30T09:11:06.472Z,78.94
2022-08-30T09:12:06.494Z,78.66
2022-08-30T09:13:06.523Z,78.75
2022-08-30T09:14:06.567Z,78.17
2022-08-30T09:15:06.630Z,79.87
2022-08-30T09:16:06.492Z,79.62
2022-08-30T09:17:06.561Z,78.02
2022-08-30T09:18:06.476Z,77.53
2022-08-30T09:19:06.577Z,78.08
2022-08-30T09:20:06.662Z,76.82
2022-08-30T09:21:06.453Z,77.50
2022-08-30T09:22:06.438Z,77.92
2022-08-30T09:23:06.494Z,76.33
2022-08-30T09:24:06.468Z,77.30
2022-08-30T09:25:06.589Z,76.43
2022-08-30T09:26:06.429Z,75.56
2022-08-30T09:27:06.465Z,77.88
2022-08-30T09:28:06.473Z,78.27
2022-08-30T09:29:06.435Z,79.78
2022-08-30T09:30:06.605Z,79.68
2022-08-30T09:31:11.373Z,79.68
2022-08-30T09:32:24.663Z,78.75
2022-08-30T09:33:06.424Z,79.72
2022-08-30T09:34:06.432Z,79.14
2022-08-30T09:35:06.999Z,78.66
2022-08-30T09:36:06.473Z,77.59
2022-08-30T09:37:06.431Z,77.78
2022-08-30T09:38:06.423Z,77.50
2022-08-30T09:39:06.413Z,78.85
2022-08-30T09:40:06.599Z,78.56
2022-08-30T09:41:06.441Z,77.69
2022-08-30T09:42:06.404Z,79.82
2022-08-30T09:43:06.414Z,78.94
2022-08-30T09:44:06.398Z,78.99
2022-08-30T09:45:06.553Z,77.40
2022-08-30T09:46:06.453Z,77.98
2022-08-30T09:47:06.451Z,79.14
2022-08-30T09:48:06.426Z,78.75
2022-08-30T09:49:06.422Z,79.82
2022-08-30T09:50:06.614Z,81.21
2022-08-30T09:51:06.435Z,79.95
2022-08-30T09:52:06.419Z,76.60
2022-08-30T09:53:06.423Z,77.86
2022-08-30T09:54:17.131Z,79.64
2022-08-30T09:55:06.519Z,78.77
2022-08-30T09:56:06.405Z,77.76
2022-08-30T09:57:12.677Z,75.98
2022-08-30T09:58:06.360Z,80.59
2022-08-30T09:59:06.451Z,78.94
2022-08-30T10:00:06.522Z,79.58
2022-08-30T10:01:06.428Z,80.46
2022-08-30T10:02:06.398Z,78.61
2022-08-30T10:03:06.380Z,79.97
2022-08-30T10:04:06.364Z,78.85
2022-08-30T10:05:06.736Z,80.79
2022-08-30T10:06:06.371Z,79.17
2022-08-30T10:07:06.364Z,77.63
2022-08-30T10:08:06.364Z,78.31
2022-08-30T10:09:06.344Z,77.30
2022-08-30T10:10:06.718Z,78.56
2022-08-30T10:11:06.586Z,79.04
2022-08-30T10:12:06.624Z,78.17
2022-08-30T10:13:06.561Z,77.88
2022-08-30T10:14:06.371Z,80.24
2022-08-30T10:15:06.503Z,79.70
2022-08-30T10:16:06.442Z,77.57
2022-08-30T10:17:06.495Z,76.41
2022-08-30T10:18:06.343Z,77.80
2022-08-30T10:19:06.605Z,76.41
2022-08-30T10:20:06.430Z,78.54
2022-08-30T10:21:06.352Z,76.46
2022-08-30T10:22:06.354Z,76.14
2022-08-30T10:23:06.344Z,78.08
2022-08-30T10:24:06.835Z,77.88
2022-08-30T10:25:06.599Z,77.50
2022-08-30T10:26:06.548Z,78.56
2022-08-30T10:27:06.334Z,79.10
2022-08-30T10:28:06.319Z,78.56
2022-08-30T10:29:06.297Z,79.24
2022-08-30T10:30:06.387Z,79.66
2022-08-30T10:31:06.332Z,78.89
2022-08-30T10:32:06.303Z,78.50
2022-08-30T10:33:06.332Z,77.24
2022-08-30T10:34:06.330Z,77.24
2022-08-30T10:35:06.474Z,76.41
2022-08-30T10:36:06.298Z,76.21
2022-08-30T10:37:06.344Z,74.28
2022-08-30T10:38:06.293Z,77.57
2022-08-30T10:39:06.286Z,77.37
2022-08-30T10:40:06.452Z,73.69
2022-08-30T10:41:06.307Z,76.51
2022-08-30T10:42:06.325Z,73.31
2022-08-30T10:43:06.282Z,71.47
2022-08-30T10:44:06.334Z,73.41
2022-08-30T10:45:06.423Z,76.45
2022-08-30T10:46:06.288Z,73.83
2022-08-30T10:47:06.289Z,73.50
2022-08-30T10:48:06.280Z,73.08
2022-08-30T10:49:06.285Z,76.79
2022-08-30T10:50:06.325Z,76.21
2022-08-30T10:51:06.284Z,76.21
2022-08-30T10:52:06.258Z,74.38
2022-08-30T10:53:06.270Z,76.41
2022-08-30T10:54:06.263Z,73.89
2022-08-30T10:55:06.436Z,73.50
2022-08-30T10:56:06.267Z,74.57
2022-08-30T10:57:06.250Z,74.12
2022-08-30T10:58:06.243Z,74.51
2022-08-30T10:59:06.269Z,76.25
2022-08-30T11:00:06.422Z,73.11
2022-08-30T11:01:06.361Z,73.21
2022-08-30T11:02:06.238Z,74.38
2022-08-30T11:03:06.305Z,74.34
2022-08-30T11:04:06.241Z,73.37
2022-08-30T11:05:06.423Z,73.31
2022-08-30T11:06:06.460Z,74.66
2022-08-30T11:07:09.807Z,72.67
2022-08-30T11:08:06.274Z,74.02
2022-08-30T11:09:06.245Z,72.77
2022-08-30T11:10:06.400Z,72.96
2022-08-30T11:11:06.282Z,73.44
2022-08-30T11:12:06.317Z,71.99
2022-08-30T11:13:06.222Z,72.86
2022-08-30T11:14:06.355Z,70.25
2022-08-30T11:15:06.402Z,72.09
2022-08-30T11:16:06.276Z,71.80
2022-08-30T11:17:06.240Z,71.76
2022-08-30T11:18:06.289Z,72.77
2022-08-30T11:19:06.244Z,72.57
2022-08-30T11:20:06.387Z,70.25
2022-08-30T11:21:06.254Z,70.54
2022-08-30T11:22:06.309Z,71.56
2022-08-30T11:23:06.288Z,70.47
2022-08-30T11:24:10.831Z,70.95
2022-08-30T11:25:09.874Z,72.83
2022-08-30T11:26:06.456Z,72.83
2022-08-30T11:27:06.365Z,72.34
2022-08-30T11:28:06.602Z,69.98
2022-08-30T11:29:06.568Z,70.76
2022-08-30T11:30:06.709Z,70.47
2022-08-30T11:31:06.657Z,70.27
2022-08-30T11:32:06.219Z,69.40
2022-08-30T11:33:09.457Z,70.24
2022-08-30T11:34:06.209Z,73.04
2022-08-30T11:35:06.352Z,73.72
2022-08-30T11:36:06.245Z,71.11
2022-08-30T11:37:10.090Z,73.57
2022-08-30T11:38:06.175Z,72.44
2022-08-30T11:39:06.231Z,71.56
2022-08-30T11:40:06.454Z,72.63
2022-08-30T11:41:06.215Z,70.31
2022-08-30T11:42:06.184Z,70.27
2022-08-30T11:43:06.250Z,69.21
2022-08-30T11:44:06.218Z,71.14
2022-08-30T11:45:06.394Z,69.69
2022-08-30T11:46:06.241Z,71.62
2022-08-30T11:47:06.194Z,72.34
2022-08-30T11:48:06.188Z,70.40
2022-08-30T11:49:06.180Z,69.24
2022-08-30T11:50:09.671Z,68.56
2022-08-30T11:51:06.189Z,67.88
2022-08-30T11:52:26.934Z,68.56
2022-08-30T11:53:06.201Z,67.98
2022-08-30T11:54:06.402Z,68.15
2022-08-30T11:55:06.986Z,69.98
2022-08-30T11:56:06.135Z,68.82
2022-08-30T11:57:06.144Z,69.89
2022-08-30T11:58:06.143Z,68.53
2022-08-30T11:59:06.171Z,67.82
2022-08-30T12:00:06.333Z,70.86
2022-08-30T12:01:09.972Z,70.27
2022-08-30T12:02:06.505Z,66.60
2022-08-30T12:03:06.292Z,67.37
2022-08-30T12:04:06.134Z,68.63
2022-08-30T12:05:06.823Z,66.78
2022-08-30T12:06:06.129Z,68.53
2022-08-30T12:07:06.165Z,67.76
2022-08-30T12:08:06.106Z,67.08
2022-08-30T12:09:08.313Z,66.50
2022-08-30T12:10:06.332Z,67.27
2022-08-30T12:11:06.157Z,66.50
2022-08-30T12:12:06.129Z,67.18
2022-08-30T12:13:06.299Z,66.50
2022-08-30T12:14:09.100Z,66.40
2022-08-30T12:15:06.167Z,68.69
2022-08-30T12:16:06.217Z,67.82
2022-08-30T12:17:06.087Z,66.75
2022-08-30T12:18:06.106Z,69.98
2022-08-30T12:19:06.110Z,67.46
2022-08-30T12:20:06.231Z,67.95
2022-08-30T12:21:06.071Z,68.18
2022-08-30T12:22:06.110Z,66.88
2022-08-30T12:23:06.140Z,67.85
2022-08-30T12:24:06.070Z,69.50
2022-08-30T12:25:06.221Z,68.66
2022-08-30T12:26:06.089Z,67.98
2022-08-30T12:27:06.060Z,70.11
2022-08-30T12:28:06.061Z,69.27
2022-08-30T12:29:06.061Z,68.30
2022-08-30T12:30:06.205Z,67.53
2022-08-30T12:31:06.047Z,68.21
2022-08-30T12:32:06.383Z,65.82
2022-08-30T12:33:06.061Z,65.98
2022-08-30T12:34:06.058Z,67.14
2022-08-30T12:35:06.169Z,68.01
2022-08-30T12:36:06.041Z,67.69
2022-08-30T12:37:06.034Z,70.14
2022-08-30T12:38:06.104Z,69.95
2022-08-30T12:39:06.270Z,66.85
2022-08-30T12:40:06.311Z,68.21
2022-08-30T12:41:06.069Z,70.24
2022-08-30T12:42:06.053Z,69.85
2022-08-30T12:43:06.276Z,70.82
2022-08-30T12:44:06.058Z,69.95
2022-08-30T12:45:06.158Z,70.08
2022-08-30T12:46:07.309Z,69.89
2022-08-30T12:47:06.048Z,66.88
2022-08-30T12:48:06.033Z,65.05
2022-08-30T12:49:06.015Z,64.62
2022-08-30T12:50:06.178Z,67.33
2022-08-30T12:51:06.004Z,68.59
2022-08-30T12:52:06.027Z,68.21
2022-08-30T12:53:08.457Z,69.17
2022-08-30T12:54:06.007Z,69.27
2022-08-30T12:55:06.176Z,69.46